GMME/RBA METAR and TAF weather

Enter ICAO airport designator
Station Type Date Time Source
GMME METAR 2020/04/08 20:00 UTC NOAA

GMME 082000Z 22005KT 6000 NSC 17/16 Q1017 NOSIG


Station Type Date Time Source
GMME Decoded METAR 2020/04/08 20:00 UTC NOAA

Rabat-Sale, Morocco (GMME) 34-03N 006-46W 75M
Apr 08, 2020 - 04:00 PM EDT / 2020.04.08 2000 UTC
Wind: from the SW (220 degrees) at 6 MPH (5 KT):0
Visibility: 3 mile(s):0
Temperature: 62 F (17 C)
Dew Point: 60 F (16 C)
Relative Humidity: 93%
Pressure (altimeter): 30.03 in. Hg (1017 hPa)
ob: GMME 082000Z 22005KT 6000 NSC 17/16 Q1017 NOSIG
cycle: 20

Station Type Date Time Source
GMME TAF 2020/04/08 18:19 UTC NOAA

TAF GMME 081700Z 0818/0924 26006KT 6000 SCT020 BKN100

Example: see airport list